Terminal Aerodrome Forecast
Issued by NWS

Home | Current Version | Previous Version | Text Only | Print | Product List | Glossary On
Versions: 1 2 3 4 5 6 7 8 9 10 11 12 13 14 15
000
FTUS44 KJAN 202039 AAA
TAFHKS
TAF AMD
KHKS 202039Z 2021/2118 09005KT 5SM -TSRA BR BKN050CB BKN100
     FM202200 15003KT P6SM -RA BKN050 BKN120
     FM210000 15003KT P6SM SCT100
     FM211000 00000KT 4SM BR SCT250
     FM211400 19005KT P6SM BKN250=

USA.gov is the U.S. government's official web portal to all federal, state and local government web resources and services.